Time;durP1;ratioP1;P1;durP2;ratioP2;P2;SDS_P1;SDS_P2;PMS_P1;PMS_P2;Temp;Humidity;BMP_temperature;BMP_pressure;BME280_temperature;BME280_humidity;BME280_pressure;Samples;Min_cycle;Max_cycle;Signal;HPM_P1;HPM_P2
2022/08/29 00:00:13;;;;;;;11.40;3.08;;;;;;;;;;5091446;28;20046;-77
2022/08/29 00:02:44;;;;;;;10.40;3.10;;;;;;;;;;5071893;28;20794;-77
2022/08/29 00:05:10;;;;;;;13.20;3.17;;;;;;;;;;5072632;28;20880;-78
2022/08/29 00:07:40;;;;;;;9.80;3.15;;;;;;;;;;5073042;28;20143;-78
2022/08/29 00:10:06;;;;;;;15.52;3.95;;;;;;;;;;5072349;28;20094;-78
2022/08/29 00:12:33;;;;;;;13.77;3.40;;;;;;;;;;5089274;28;20044;-77
2022/08/29 00:14:59;;;;;;;10.98;3.10;;;;;;;;;;5093588;28;20046;-77
2022/08/29 00:17:26;;;;;;;11.57;3.70;;;;;;;;;;5092857;28;20047;-78
2022/08/29 00:19:52;;;;;;;8.02;2.72;;;;;;;;;;5091518;28;20101;-77
2022/08/29 00:22:19;;;;;;;12.18;3.75;;;;;;;;;;5091584;28;20158;-77
2022/08/29 00:24:45;;;;;;;10.70;3.35;;;;;;;;;;5092157;28;20136;-77
2022/08/29 00:27:11;;;;;;;15.02;3.85;;;;;;;;;;5092944;28;20548;-78
2022/08/29 00:29:38;;;;;;;10.88;3.15;;;;;;;;;;5090380;28;20072;-77
2022/08/29 00:32:05;;;;;;;11.43;3.33;;;;;;;;;;5075860;28;20083;-78
2022/08/29 00:34:31;;;;;;;10.52;2.95;;;;;;;;;;5091422;28;20254;-78
2022/08/29 00:36:58;;;;;;;12.77;3.17;;;;;;;;;;5092892;28;20051;-78
2022/08/29 00:39:24;;;;;;;14.45;3.80;;;;;;;;;;5092012;28;20047;-77
2022/08/29 00:41:52;;;;;;;10.60;3.30;;;;;;;;;;5092470;28;20074;-77
2022/08/29 00:44:18;;;;;;;13.30;3.85;;;;;;;;;;5092810;28;20051;-77
2022/08/29 00:46:48;;;;;;;12.48;3.20;;;;;;;;;;5092327;28;20083;-78
2022/08/29 00:49:23;;;;;;;13.38;3.42;;;;;;;;;;5091043;28;20053;-77
2022/08/29 00:51:51;;;;;;;14.40;3.65;;;;;;;;;;5090900;28;20079;-77
2022/08/29 00:54:21;;;;;;;13.75;3.50;;;;;;;;;;5089522;28;20135;-77
2022/08/29 00:56:47;;;;;;;9.32;3.50;;;;;;;;;;5079287;28;20446;-77
2022/08/29 00:59:15;;;;;;;19.77;3.13;;;;;;;;;;5071390;28;20079;-77
2022/08/29 01:01:43;;;;;;;13.23;3.60;;;;;;;;;;5070239;28;20046;-78
2022/08/29 01:04:09;;;;;;;13.60;4.35;;;;;;;;;;5068098;28;20041;-77
2022/08/29 01:06:49;;;;;;;8.23;3.47;;;;;;;;;;5070842;28;20036;-77
2022/08/29 01:09:16;;;;;;;11.57;3.50;;;;;;;;;;5052100;28;20131;-78
2022/08/29 01:14:27;;;;;;;10.95;3.50;;;;;;;;;;5090691;28;20079;-77
2022/08/29 01:16:56;;;;;;;14.98;3.95;;;;;;;;;;5072953;28;20071;-77
2022/08/29 01:19:30;;;;;;;12.85;4.35;;;;;;;;;;5089360;28;20071;-77
2022/08/29 01:22:22;;;;;;;15.18;4.30;;;;;;;;;;5089441;28;20128;-77
2022/08/29 01:24:54;;;;;;;11.30;3.60;;;;;;;;;;5086508;28;20191;-78
2022/08/29 01:27:22;;;;;;;16.58;3.72;;;;;;;;;;5089414;28;20040;-78
2022/08/29 01:29:48;;;;;;;10.75;3.30;;;;;;;;;;5090370;28;20059;-77
2022/08/29 01:32:15;;;;;;;12.38;4.07;;;;;;;;;;5089814;28;20131;-77
2022/08/29 01:34:42;;;;;;;11.65;3.72;;;;;;;;;;5088625;28;20142;-77
2022/08/29 01:37:11;;;;;;;15.80;3.60;;;;;;;;;;5091000;28;20115;-77
2022/08/29 01:39:38;;;;;;;13.88;3.70;;;;;;;;;;5096217;28;20094;-78
2022/08/29 01:42:06;;;;;;;10.20;3.60;;;;;;;;;;5096788;28;20063;-78
2022/08/29 01:44:32;;;;;;;9.80;3.75;;;;;;;;;;5090375;28;20097;-77
2022/08/29 01:47:00;;;;;;;11.38;3.35;;;;;;;;;;5091011;28;20229;-78
2022/08/29 01:49:30;;;;;;;15.05;3.85;;;;;;;;;;5088391;28;20446;-77
2022/08/29 01:51:56;;;;;;;10.50;3.65;;;;;;;;;;5098382;28;20055;-78
2022/08/29 01:54:25;;;;;;;11.38;3.70;;;;;;;;;;5090552;28;20575;-78
2022/08/29 01:56:52;;;;;;;10.48;3.80;;;;;;;;;;5079990;28;20144;-77
2022/08/29 01:59:20;;;;;;;14.57;4.30;;;;;;;;;;5089797;28;20056;-77
2022/08/29 02:01:52;;;;;;;14.65;4.13;;;;;;;;;;5090245;28;20131;-77
2022/08/29 02:04:19;;;;;;;10.70;3.75;;;;;;;;;;5087910;28;20039;-78
2022/08/29 02:06:45;;;;;;;7.88;3.35;;;;;;;;;;5089137;28;20226;-77
2022/08/29 02:09:12;;;;;;;9.88;3.33;;;;;;;;;;5088405;28;20488;-77
2022/08/29 02:11:38;;;;;;;12.80;3.85;;;;;;;;;;5079052;28;20093;-77
2022/08/29 02:14:05;;;;;;;17.25;3.80;;;;;;;;;;5069735;28;20491;-77
2022/08/29 02:16:32;;;;;;;13.82;4.15;;;;;;;;;;5055800;28;20087;-78
2022/08/29 02:18:58;;;;;;;13.40;4.00;;;;;;;;;;5072919;28;20044;-78
2022/08/29 02:21:26;;;;;;;13.70;3.90;;;;;;;;;;5076506;28;20169;-78
2022/08/29 02:23:56;;;;;;;8.13;3.92;;;;;;;;;;5073342;28;20127;-79
2022/08/29 02:26:22;;;;;;;10.80;3.75;;;;;;;;;;5074710;28;20041;-78
2022/08/29 02:28:50;;;;;;;17.10;4.05;;;;;;;;;;5074371;28;20507;-78
2022/08/29 02:31:21;;;;;;;9.80;3.67;;;;;;;;;;5073493;28;20131;-78
2022/08/29 02:33:48;;;;;;;11.10;4.40;;;;;;;;;;5054202;28;20040;-77
2022/08/29 02:36:15;;;;;;;10.73;3.90;;;;;;;;;;5072591;28;20448;-78
2022/08/29 02:38:44;;;;;;;10.68;3.80;;;;;;;;;;5069614;28;20051;-77
2022/08/29 02:41:11;;;;;;;8.82;3.97;;;;;;;;;;5071217;28;20127;-77
2022/08/29 02:43:39;;;;;;;14.38;4.20;;;;;;;;;;5069123;28;20041;-77
2022/08/29 02:46:06;;;;;;;15.40;4.80;;;;;;;;;;5069260;28;20075;-77
2022/08/29 02:48:42;;;;;;;12.57;4.45;;;;;;;;;;5067534;28;20066;-77
2022/08/29 02:51:27;;;;;;;13.32;4.43;;;;;;;;;;5069607;28;20127;-78
2022/08/29 02:53:54;;;;;;;12.55;4.10;;;;;;;;;;5071611;28;20083;-78
2022/08/29 02:56:21;;;;;;;12.00;4.43;;;;;;;;;;5078491;28;20123;-76
2022/08/29 02:58:49;;;;;;;12.93;4.75;;;;;;;;;;5067944;28;20103;-77
2022/08/29 03:01:16;;;;;;;12.98;4.53;;;;;;;;;;5068918;28;20459;-76
2022/08/29 03:03:43;;;;;;;10.50;4.32;;;;;;;;;;5070936;28;20055;-76
2022/08/29 03:06:09;;;;;;;12.07;3.95;;;;;;;;;;5068945;28;20547;-78
2022/08/29 03:08:36;;;;;;;11.68;4.35;;;;;;;;;;5067612;28;20048;-78
2022/08/29 03:11:04;;;;;;;13.38;4.32;;;;;;;;;;5072295;28;20127;-77
2022/08/29 03:13:32;;;;;;;11.75;4.10;;;;;;;;;;5070552;28;20122;-77
2022/08/29 03:16:00;;;;;;;15.45;4.15;;;;;;;;;;5089461;28;20039;-78
2022/08/29 03:18:27;;;;;;;10.52;4.22;;;;;;;;;;5087658;28;20059;-77
2022/08/29 03:20:53;;;;;;;13.20;4.70;;;;;;;;;;5087979;28;20086;-78
2022/08/29 03:23:20;;;;;;;10.60;4.03;;;;;;;;;;5089005;28;20040;-78
2022/08/29 03:25:46;;;;;;;17.05;4.53;;;;;;;;;;5070357;28;20040;-77
2022/08/29 03:28:13;;;;;;;15.70;4.47;;;;;;;;;;5070913;28;20546;-77
2022/08/29 03:30:39;;;;;;;15.95;4.85;;;;;;;;;;5088448;28;20051;-77
2022/08/29 03:33:06;;;;;;;10.80;4.05;;;;;;;;;;5078901;28;20044;-77
2022/08/29 03:35:37;;;;;;;10.95;4.10;;;;;;;;;;5079065;28;20051;-77
2022/08/29 03:38:03;;;;;;;16.13;5.00;;;;;;;;;;5088459;28;20142;-77
2022/08/29 03:40:30;;;;;;;15.38;4.75;;;;;;;;;;5087179;28;20078;-77
2022/08/29 03:42:57;;;;;;;13.80;4.47;;;;;;;;;;5088272;28;20131;-77
2022/08/29 03:45:24;;;;;;;11.63;4.57;;;;;;;;;;5092337;28;20040;-77
2022/08/29 03:47:52;;;;;;;14.45;5.10;;;;;;;;;;5093690;28;20140;-76
2022/08/29 03:50:19;;;;;;;18.17;5.20;;;;;;;;;;5103935;28;20036;-78
2022/08/29 03:52:46;;;;;;;12.13;5.38;;;;;;;;;;5100905;28;20907;-76
2022/08/29 03:55:13;;;;;;;13.75;5.05;;;;;;;;;;5097555;28;20649;-77
2022/08/29 03:57:39;;;;;;;14.77;5.57;;;;;;;;;;5087726;28;20111;-78
2022/08/29 04:00:11;;;;;;;14.15;5.10;;;;;;;;;;5094825;28;20084;-77
2022/08/29 04:02:38;;;;;;;15.13;5.25;;;;;;;;;;5090346;28;20067;-76
2022/08/29 04:05:07;;;;;;;15.15;5.15;;;;;;;;;;5088239;28;20123;-78
2022/08/29 04:07:41;;;;;;;17.83;5.10;;;;;;;;;;5087343;28;20044;-77
2022/08/29 04:10:09;;;;;;;14.52;5.63;;;;;;;;;;5087648;28;20039;-77
2022/08/29 04:12:36;;;;;;;12.68;5.15;;;;;;;;;;5050582;28;20048;-78
2022/08/29 04:15:04;;;;;;;12.77;5.20;;;;;;;;;;5067028;28;20446;-77
2022/08/29 04:17:31;;;;;;;21.67;5.80;;;;;;;;;;5048277;28;20075;-78
2022/08/29 04:19:58;;;;;;;15.05;5.53;;;;;;;;;;5065702;28;20131;-78
2022/08/29 04:22:24;;;;;;;16.35;5.45;;;;;;;;;;5051661;28;20592;-78
2022/08/29 04:24:51;;;;;;;16.38;5.72;;;;;;;;;;5053103;28;20110;-78
2022/08/29 04:27:17;;;;;;;14.93;5.82;;;;;;;;;;5053757;28;20187;-78
2022/08/29 04:29:47;;;;;;;18.02;5.78;;;;;;;;;;5053443;28;20706;-78
2022/08/29 04:32:14;;;;;;;11.38;5.10;;;;;;;;;;5070515;28;20069;-78
2022/08/29 04:34:41;;;;;;;12.73;5.13;;;;;;;;;;5077078;28;20476;-80
2022/08/29 04:37:07;;;;;;;15.98;5.35;;;;;;;;;;5066288;28;20507;-79
2022/08/29 04:39:34;;;;;;;14.45;5.10;;;;;;;;;;5077743;28;20062;-79
2022/08/29 04:42:01;;;;;;;13.25;4.90;;;;;;;;;;5094763;28;20052;-79
2022/08/29 04:44:27;;;;;;;19.05;5.63;;;;;;;;;;5094076;28;20106;-79
2022/08/29 04:46:54;;;;;;;15.85;5.90;;;;;;;;;;5094120;28;20493;-80
2022/08/29 04:49:20;;;;;;;17.20;5.10;;;;;;;;;;5083696;28;20044;-80
2022/08/29 04:51:47;;;;;;;10.85;4.95;;;;;;;;;;5081944;28;20052;-79
2022/08/29 04:54:13;;;;;;;17.88;5.43;;;;;;;;;;5076896;28;20052;-79
2022/08/29 04:56:43;;;;;;;16.92;5.55;;;;;;;;;;5074011;28;20078;-78
2022/08/29 04:59:13;;;;;;;12.18;5.57;;;;;;;;;;5063610;28;20069;-79
2022/08/29 05:01:40;;;;;;;10.98;5.93;;;;;;;;;;5063299;28;20058;-78
2022/08/29 05:04:08;;;;;;;15.02;5.60;;;;;;;;;;5082207;28;20045;-77
2022/08/29 05:06:40;;;;;;;12.75;5.50;;;;;;;;;;5088480;28;20351;-79
2022/08/29 05:09:06;;;;;;;13.93;5.70;;;;;;;;;;5098837;28;20086;-80
2022/08/29 05:11:33;;;;;;;16.33;5.88;;;;;;;;;;5086333;28;20045;-79
2022/08/29 05:14:00;;;;;;;16.33;5.97;;;;;;;;;;5054215;28;20144;-78
2022/08/29 05:16:28;;;;;;;14.65;5.18;;;;;;;;;;5081449;28;20494;-79
2022/08/29 05:18:55;;;;;;;12.05;5.45;;;;;;;;;;5076398;28;20048;-79
2022/08/29 05:21:23;;;;;;;19.02;6.30;;;;;;;;;;5069482;28;20087;-79
2022/08/29 05:23:51;;;;;;;11.18;5.05;;;;;;;;;;5069673;28;20040;-78
2022/08/29 05:26:18;;;;;;;16.58;5.38;;;;;;;;;;5070618;28;20103;-79
2022/08/29 05:28:44;;;;;;;13.90;5.15;;;;;;;;;;5077232;28;20087;-79
2022/08/29 05:31:13;;;;;;;11.70;5.35;;;;;;;;;;5075679;28;20052;-77
2022/08/29 05:33:40;;;;;;;14.63;6.20;;;;;;;;;;5067249;28;20135;-79
2022/08/29 05:36:06;;;;;;;12.52;5.93;;;;;;;;;;5086008;28;20079;-79
2022/08/29 05:38:33;;;;;;;14.52;6.60;;;;;;;;;;5089048;28;20119;-79
2022/08/29 05:41:00;;;;;;;28.02;7.50;;;;;;;;;;5087514;28;20532;-78
2022/08/29 05:43:26;;;;;;;22.85;6.38;;;;;;;;;;5069311;28;20155;-79
2022/08/29 05:46:03;;;;;;;18.50;6.82;;;;;;;;;;5069594;28;20139;-79
2022/08/29 05:48:30;;;;;;;21.98;6.82;;;;;;;;;;5071786;28;20134;-78
2022/08/29 05:50:57;;;;;;;18.95;6.43;;;;;;;;;;5066254;28;20048;-79
2022/08/29 05:53:24;;;;;;;16.42;5.75;;;;;;;;;;5070419;28;20161;-79
2022/08/29 05:55:50;;;;;;;18.35;5.90;;;;;;;;;;5076989;28;20440;-79
2022/08/29 05:58:17;;;;;;;15.98;5.28;;;;;;;;;;5068612;28;20068;-79
2022/08/29 06:00:45;;;;;;;19.45;6.00;;;;;;;;;;5075521;28;20105;-78
2022/08/29 06:03:12;;;;;;;14.50;5.07;;;;;;;;;;5089073;28;20103;-79
2022/08/29 06:05:41;;;;;;;16.60;5.68;;;;;;;;;;5065433;28;20040;-78
2022/08/29 06:08:08;;;;;;;15.90;5.97;;;;;;;;;;5077779;28;20052;-79
2022/08/29 06:10:38;;;;;;;16.25;5.75;;;;;;;;;;5092848;28;20332;-78
2022/08/29 06:13:04;;;;;;;19.55;5.65;;;;;;;;;;5084947;28;20575;-78
2022/08/29 06:15:32;;;;;;;17.83;5.53;;;;;;;;;;5091926;28;20075;-78
2022/08/29 06:17:58;;;;;;;14.88;5.18;;;;;;;;;;5091614;28;20687;-77
2022/08/29 06:20:25;;;;;;;21.55;5.32;;;;;;;;;;5093092;28;20128;-77
2022/08/29 06:22:51;;;;;;;18.23;5.07;;;;;;;;;;5095174;28;20101;-79
2022/08/29 06:25:18;;;;;;;14.32;5.00;;;;;;;;;;5102122;28;20098;-78
2022/08/29 06:28:04;;;;;;;17.73;5.53;;;;;;;;;;5101105;28;20051;-79
2022/08/29 06:30:31;;;;;;;15.20;5.22;;;;;;;;;;5099417;28;20051;-77
2022/08/29 06:32:58;;;;;;;13.95;5.10;;;;;;;;;;5095057;28;20590;-78
2022/08/29 06:35:25;;;;;;;15.48;5.28;;;;;;;;;;5092989;28;20490;-76
2022/08/29 06:37:51;;;;;;;19.08;5.25;;;;;;;;;;5111121;28;20048;-78
2022/08/29 06:40:18;;;;;;;19.23;5.53;;;;;;;;;;5091172;28;20443;-77
2022/08/29 06:42:44;;;;;;;19.00;5.28;;;;;;;;;;5088464;28;20068;-79
2022/08/29 06:45:13;;;;;;;18.35;4.97;;;;;;;;;;5073289;28;20621;-77
2022/08/29 06:47:40;;;;;;;14.45;4.78;;;;;;;;;;5068103;28;20545;-77
2022/08/29 06:50:06;;;;;;;16.17;5.28;;;;;;;;;;5051360;28;20080;-77
2022/08/29 06:52:32;;;;;;;17.60;5.20;;;;;;;;;;5072032;28;20048;-77
2022/08/29 06:55:01;;;;;;;16.98;4.93;;;;;;;;;;5090766;28;20037;-76
2022/08/29 06:57:27;;;;;;;16.02;4.55;;;;;;;;;;5074533;28;20080;-79
2022/08/29 06:59:53;;;;;;;19.17;5.43;;;;;;;;;;5070717;28;20135;-78
2022/08/29 07:02:20;;;;;;;14.45;4.93;;;;;;;;;;5068463;28;20076;-76
2022/08/29 07:04:46;;;;;;;16.20;4.97;;;;;;;;;;5049411;28;20246;-77
2022/08/29 07:07:13;;;;;;;15.23;5.00;;;;;;;;;;5068618;28;20087;-78
2022/08/29 07:09:39;;;;;;;14.63;4.45;;;;;;;;;;5066969;28;20075;-76
2022/08/29 07:12:06;;;;;;;13.05;4.78;;;;;;;;;;5082136;28;20086;-77
2022/08/29 07:14:32;;;;;;;15.18;4.90;;;;;;;;;;5070631;28;20399;-77
2022/08/29 07:16:59;;;;;;;15.05;4.65;;;;;;;;;;5089014;28;20132;-77
2022/08/29 07:19:28;;;;;;;16.75;4.75;;;;;;;;;;5088744;28;20048;-76
2022/08/29 07:21:56;;;;;;;19.00;5.78;;;;;;;;;;5071175;28;20139;-77
2022/08/29 07:24:23;;;;;;;17.35;5.30;;;;;;;;;;5087702;28;20042;-78
2022/08/29 07:26:50;;;;;;;18.85;5.18;;;;;;;;;;5087267;28;20077;-78
2022/08/29 07:29:18;;;;;;;20.58;5.55;;;;;;;;;;5088052;28;20045;-78
2022/08/29 07:31:44;;;;;;;13.05;4.35;;;;;;;;;;5087634;28;20123;-78
2022/08/29 07:34:11;;;;;;;18.90;4.57;;;;;;;;;;5086132;28;20055;-78
2022/08/29 07:36:38;;;;;;;15.25;4.53;;;;;;;;;;5088085;28;20122;-77
2022/08/29 07:39:06;;;;;;;12.70;4.57;;;;;;;;;;5087708;28;20085;-78
2022/08/29 07:41:32;;;;;;;15.73;4.53;;;;;;;;;;5086777;28;20139;-77
2022/08/29 07:43:59;;;;;;;14.80;4.25;;;;;;;;;;5088048;28;20115;-77
2022/08/29 07:46:25;;;;;;;16.02;4.50;;;;;;;;;;5088848;28;20159;-76
2022/08/29 07:48:52;;;;;;;15.02;4.50;;;;;;;;;;5068864;28;20488;-78
2022/08/29 07:51:21;;;;;;;15.90;4.82;;;;;;;;;;5088185;28;20123;-78
2022/08/29 07:53:48;;;;;;;13.68;4.88;;;;;;;;;;5086611;28;20143;-77
2022/08/29 07:56:16;;;;;;;11.30;4.20;;;;;;;;;;5079815;28;20078;-78
2022/08/29 07:58:43;;;;;;;17.20;4.72;;;;;;;;;;5083528;28;20446;-77
2022/08/29 08:01:10;;;;;;;18.20;4.57;;;;;;;;;;5092493;28;20149;-77
2022/08/29 08:03:46;;;;;;;17.50;4.90;;;;;;;;;;5091671;28;20074;-77
2022/08/29 08:06:13;;;;;;;14.52;4.93;;;;;;;;;;5092734;28;20462;-78
2022/08/29 08:08:39;;;;;;;12.57;4.43;;;;;;;;;;5091534;28;20046;-78
2022/08/29 08:11:07;;;;;;;20.38;4.40;;;;;;;;;;5085667;28;20125;-78
2022/08/29 08:13:34;;;;;;;16.00;4.97;;;;;;;;;;5072297;28;20454;-78
2022/08/29 08:16:05;;;;;;;21.25;4.63;;;;;;;;;;5072776;28;20080;-78
2022/08/29 08:18:33;;;;;;;18.17;4.57;;;;;;;;;;5072180;28;20050;-76
2022/08/29 08:20:59;;;;;;;14.98;4.88;;;;;;;;;;5070931;28;20144;-78
2022/08/29 08:23:25;;;;;;;17.20;4.60;;;;;;;;;;5055398;28;20096;-79
2022/08/29 08:25:52;;;;;;;14.27;4.43;;;;;;;;;;5056294;28;20576;-75
2022/08/29 08:28:18;;;;;;;13.23;4.65;;;;;;;;;;5085829;28;20056;-76
2022/08/29 08:30:45;;;;;;;12.23;4.50;;;;;;;;;;5087117;28;20060;-78
2022/08/29 08:33:12;;;;;;;13.07;4.47;;;;;;;;;;5080829;28;20389;-77
2022/08/29 08:35:38;;;;;;;12.80;4.72;;;;;;;;;;5064447;28;20059;-76
2022/08/29 08:38:07;;;;;;;16.92;5.07;;;;;;;;;;5089440;28;20357;-76
2022/08/29 08:40:38;;;;;;;15.73;4.43;;;;;;;;;;5088856;28;20137;-77
2022/08/29 08:43:07;;;;;;;15.20;4.30;;;;;;;;;;5091425;28;20055;-77
2022/08/29 08:45:38;;;;;;;18.25;4.03;;;;;;;;;;5091984;28;20610;-77
2022/08/29 08:48:04;;;;;;;18.15;4.85;;;;;;;;;;5089631;28;20044;-77
2022/08/29 08:50:33;;;;;;;15.48;4.90;;;;;;;;;;5090888;28;20116;-76
2022/08/29 08:53:13;;;;;;;15.30;4.50;;;;;;;;;;5072604;28;20545;-77
2022/08/29 08:55:48;;;;;;;14.65;4.55;;;;;;;;;;5087103;28;20056;-77
2022/08/29 08:58:33;;;;;;;13.60;4.68;;;;;;;;;;5082378;28;20561;-78
2022/08/29 09:01:00;;;;;;;16.23;4.10;;;;;;;;;;5074278;28;20563;-78
2022/08/29 09:03:47;;;;;;;14.90;4.15;;;;;;;;;;5071468;28;20532;-78
2022/08/29 09:06:14;;;;;;;18.33;4.07;;;;;;;;;;5091405;28;20158;-78
2022/08/29 09:08:51;;;;;;;17.38;5.07;;;;;;;;;;5072821;28;20081;-78
2022/08/29 09:11:27;;;;;;;14.52;4.90;;;;;;;;;;5085915;28;20052;-77
2022/08/29 09:14:01;;;;;;;16.00;4.60;;;;;;;;;;5069309;28;20066;-77
2022/08/29 09:16:31;;;;;;;16.30;5.10;;;;;;;;;;5052922;28;20064;-78
2022/08/29 09:19:00;;;;;;;16.65;4.78;;;;;;;;;;5050561;28;20488;-78
2022/08/29 09:21:28;;;;;;;21.92;5.20;;;;;;;;;;5069862;28;20053;-77
2022/08/29 09:24:13;;;;;;;13.05;4.35;;;;;;;;;;5068946;28;20457;-78
2022/08/29 09:26:40;;;;;;;15.43;5.53;;;;;;;;;;5052386;28;20048;-77
2022/08/29 09:29:08;;;;;;;14.05;4.63;;;;;;;;;;5052603;28;20603;-76
2022/08/29 09:31:35;;;;;;;11.23;4.50;;;;;;;;;;5052200;28;20053;-77
2022/08/29 09:34:04;;;;;;;23.25;4.85;;;;;;;;;;5069743;28;20070;-77
2022/08/29 09:36:38;;;;;;;10.45;3.90;;;;;;;;;;5051867;28;20109;-77
2022/08/29 09:39:28;;;;;;;12.98;3.85;;;;;;;;;;5051533;28;20110;-78
2022/08/29 09:41:56;;;;;;;13.48;3.90;;;;;;;;;;5051703;28;20060;-77
2022/08/29 09:44:26;;;;;;;10.45;3.75;;;;;;;;;;5069562;28;20082;-79
2022/08/29 09:47:12;;;;;;;14.70;3.47;;;;;;;;;;5052212;28;20392;-78
2022/08/29 09:49:40;;;;;;;9.73;3.80;;;;;;;;;;5072936;28;20048;-79
2022/08/29 09:52:14;;;;;;;10.40;4.10;;;;;;;;;;5070954;28;20110;-78
2022/08/29 09:54:41;;;;;;;17.55;4.00;;;;;;;;;;5062767;28;20131;-77
2022/08/29 09:57:17;;;;;;;18.77;4.45;;;;;;;;;;5081017;28;20401;-78
2022/08/29 09:59:45;;;;;;;15.07;3.88;;;;;;;;;;5073520;28;20053;-78
2022/08/29 10:02:20;;;;;;;16.02;4.07;;;;;;;;;;5069182;28;20059;-78
2022/08/29 10:04:55;;;;;;;10.13;3.80;;;;;;;;;;5050787;28;20056;-77
2022/08/29 10:07:21;;;;;;;13.63;4.18;;;;;;;;;;5052800;28;20102;-77
2022/08/29 10:09:52;;;;;;;15.60;4.07;;;;;;;;;;5052762;28;20571;-76
2022/08/29 10:12:21;;;;;;;13.18;4.10;;;;;;;;;;5065883;28;20048;-78
2022/08/29 10:14:50;;;;;;;15.38;3.70;;;;;;;;;;5073292;28;20129;-78
2022/08/29 10:20:45;;;;;;;13.38;3.42;;;;;;;;;;5090196;28;20052;-78
2022/08/29 10:23:32;;;;;;;13.70;3.47;;;;;;;;;;5067345;28;20056;-79
2022/08/29 10:26:01;;;;;;;10.10;3.60;;;;;;;;;;5050015;28;20089;-78
2022/08/29 10:28:33;;;;;;;16.40;3.78;;;;;;;;;;5068120;28;20133;-78
2022/08/29 10:31:07;;;;;;;13.90;4.55;;;;;;;;;;5059422;28;20516;-79
2022/08/29 10:33:42;;;;;;;12.95;3.85;;;;;;;;;;5085668;28;20473;-78
2022/08/29 10:36:09;;;;;;;15.52;3.90;;;;;;;;;;5088498;28;20467;-79
2022/08/29 10:38:39;;;;;;;14.43;3.90;;;;;;;;;;5066195;28;20036;-78
2022/08/29 10:41:23;;;;;;;13.65;4.35;;;;;;;;;;5063139;28;20067;-80
2022/08/29 10:43:50;;;;;;;15.85;3.88;;;;;;;;;;5079214;28;20044;-79
2022/08/29 10:46:38;;;;;;;14.18;3.92;;;;;;;;;;5068169;28;20711;-79
2022/08/29 10:49:04;;;;;;;11.77;3.90;;;;;;;;;;5077051;28;20572;-78
2022/08/29 10:51:31;;;;;;;13.20;4.35;;;;;;;;;;5064675;28;20056;-80
2022/08/29 10:54:02;;;;;;;14.98;4.05;;;;;;;;;;5062312;28;20110;-79
2022/08/29 10:56:31;;;;;;;17.35;4.40;;;;;;;;;;5055802;28;20410;-78
2022/08/29 10:59:02;;;;;;;10.55;3.78;;;;;;;;;;5064701;28;20056;-78
2022/08/29 11:01:34;;;;;;;12.52;4.40;;;;;;;;;;5073052;28;20146;-78
2022/08/29 11:04:01;;;;;;;13.75;4.45;;;;;;;;;;5054752;28;20523;-79
2022/08/29 11:06:30;;;;;;;9.77;3.85;;;;;;;;;;5069314;28;20521;-79
2022/08/29 11:09:09;;;;;;;14.88;4.68;;;;;;;;;;5050124;28;20079;-79
2022/08/29 11:11:37;;;;;;;12.68;3.78;;;;;;;;;;5061527;28;20063;-79
2022/08/29 11:14:07;;;;;;;14.65;4.30;;;;;;;;;;5075630;28;20064;-78
2022/08/29 11:16:33;;;;;;;13.15;4.43;;;;;;;;;;5075497;28;20155;-77
2022/08/29 11:19:04;;;;;;;14.10;4.10;;;;;;;;;;5088579;28;20052;-78
2022/08/29 11:21:33;;;;;;;10.73;4.15;;;;;;;;;;5088496;28;20120;-79
2022/08/29 11:24:02;;;;;;;10.65;3.53;;;;;;;;;;5069729;28;20071;-79
2022/08/29 11:26:32;;;;;;;14.23;3.97;;;;;;;;;;5090078;28;20087;-77
2022/08/29 11:29:12;;;;;;;11.38;4.15;;;;;;;;;;5072394;28;20062;-78
2022/08/29 11:31:44;;;;;;;6.50;3.53;;;;;;;;;;5077215;28;20056;-78
2022/08/29 11:34:30;;;;;;;16.70;4.65;;;;;;;;;;5078726;28;20064;-79
2022/08/29 11:37:21;;;;;;;11.85;3.97;;;;;;;;;;5100945;28;20082;-78
2022/08/29 11:39:50;;;;;;;12.25;3.60;;;;;;;;;;5103373;28;20059;-78
2022/08/29 11:42:22;;;;;;;11.38;3.63;;;;;;;;;;5091889;28;20135;-78
2022/08/29 11:45:12;;;;;;;10.40;3.95;;;;;;;;;;5078925;28;20086;-78
2022/08/29 11:47:45;;;;;;;9.13;3.58;;;;;;;;;;5093436;28;20568;-78
2022/08/29 11:50:17;;;;;;;10.82;3.70;;;;;;;;;;5094898;28;20528;-78
2022/08/29 11:52:56;;;;;;;8.73;3.72;;;;;;;;;;5094195;28;20462;-77
2022/08/29 11:55:25;;;;;;;10.45;4.07;;;;;;;;;;5083336;28;20071;-78
2022/08/29 11:57:54;;;;;;;12.02;3.72;;;;;;;;;;5084470;28;20102;-78
2022/08/29 12:00:35;;;;;;;9.57;3.22;;;;;;;;;;5089345;28;20056;-77
2022/08/29 12:03:03;;;;;;;10.02;3.85;;;;;;;;;;5086249;28;20063;-79
2022/08/29 12:05:49;;;;;;;11.40;3.50;;;;;;;;;;5071756;28;20080;-78
2022/08/29 12:08:24;;;;;;;9.55;3.60;;;;;;;;;;5071132;28;20139;-78
2022/08/29 12:11:05;;;;;;;12.90;3.60;;;;;;;;;;5083858;28;20044;-78
2022/08/29 12:13:47;;;;;;;9.30;3.25;;;;;;;;;;5033948;28;20482;-79
2022/08/29 12:16:15;;;;;;;10.15;3.83;;;;;;;;;;5068850;28;20063;-78
2022/08/29 12:18:43;;;;;;;9.38;3.80;;;;;;;;;;5070813;28;20048;-79
2022/08/29 12:21:30;;;;;;;8.95;3.58;;;;;;;;;;5087011;28;20059;-78
2022/08/29 12:23:59;;;;;;;8.95;3.20;;;;;;;;;;5069978;28;20067;-77
2022/08/29 12:26:45;;;;;;;8.13;3.05;;;;;;;;;;5092103;28;20075;-78
2022/08/29 12:29:24;;;;;;;12.98;3.45;;;;;;;;;;5090220;28;20068;-77
2022/08/29 12:32:02;;;;;;;11.50;3.33;;;;;;;;;;5088359;28;20051;-77
2022/08/29 12:35:00;;;;;;;15.10;3.67;;;;;;;;;;5072854;28;20133;-77
2022/08/29 12:37:36;;;;;;;9.13;3.13;;;;;;;;;;5071755;28;20062;-78
2022/08/29 12:40:03;;;;;;;9.10;3.78;;;;;;;;;;5061718;28;20138;-78
2022/08/29 12:42:57;;;;;;;8.45;2.90;;;;;;;;;;5072548;28;20435;-78
2022/08/29 12:45:26;;;;;;;11.40;3.22;;;;;;;;;;5087389;28;20229;-77
2022/08/29 12:48:05;;;;;;;14.57;3.80;;;;;;;;;;5075009;28;20066;-78
2022/08/29 12:50:35;;;;;;;9.07;3.50;;;;;;;;;;5055968;28;20467;-77
2022/08/29 12:53:22;;;;;;;11.35;3.35;;;;;;;;;;5069221;28;20109;-78
2022/08/29 12:55:57;;;;;;;11.60;3.03;;;;;;;;;;5079024;28;20123;-78
2022/08/29 12:58:35;;;;;;;10.95;3.45;;;;;;;;;;5076387;28;20109;-78
2022/08/29 13:01:03;;;;;;;8.85;3.15;;;;;;;;;;5094152;28;20052;-77
2022/08/29 13:03:30;;;;;;;10.32;3.10;;;;;;;;;;5092936;28;20135;-77
2022/08/29 13:06:07;;;;;;;8.13;3.10;;;;;;;;;;5075621;28;20048;-77
2022/08/29 13:08:38;;;;;;;9.60;3.15;;;;;;;;;;5076793;28;20106;-77
2022/08/29 13:11:07;;;;;;;8.27;3.10;;;;;;;;;;5077099;28;20517;-77
2022/08/29 13:13:34;;;;;;;7.93;3.17;;;;;;;;;;5096731;28;20082;-77
2022/08/29 13:16:03;;;;;;;12.40;3.63;;;;;;;;;;5097655;28;20048;-76
2022/08/29 13:18:33;;;;;;;9.77;3.50;;;;;;;;;;5080503;28;20056;-76
2022/08/29 13:21:23;;;;;;;10.88;3.25;;;;;;;;;;5108383;28;20080;-77
2022/08/29 13:23:56;;;;;;;12.98;3.10;;;;;;;;;;5096911;28;20052;-78
2022/08/29 13:26:26;;;;;;;11.88;3.47;;;;;;;;;;5077016;28;20101;-76
2022/08/29 13:28:57;;;;;;;10.82;3.55;;;;;;;;;;5092798;28;20365;-77
2022/08/29 13:31:23;;;;;;;8.23;3.20;;;;;;;;;;5084268;28;20040;-77
2022/08/29 13:33:50;;;;;;;7.85;3.50;;;;;;;;;;5088733;28;20063;-77
2022/08/29 13:36:25;;;;;;;7.80;3.30;;;;;;;;;;5082218;28;20048;-77
2022/08/29 13:39:11;;;;;;;12.48;3.30;;;;;;;;;;5079740;28;20052;-76
2022/08/29 13:41:37;;;;;;;10.77;3.25;;;;;;;;;;5080768;28;20066;-78
2022/08/29 13:44:04;;;;;;;11.70;3.38;;;;;;;;;;5070358;28;20451;-78
2022/08/29 13:46:30;;;;;;;10.00;3.25;;;;;;;;;;5083300;28;20045;-77
2022/08/29 13:48:58;;;;;;;10.65;3.00;;;;;;;;;;5081836;28;20044;-78
2022/08/29 13:51:24;;;;;;;10.15;3.30;;;;;;;;;;5064379;28;20417;-78
2022/08/29 13:53:52;;;;;;;8.35;3.38;;;;;;;;;;5070846;28;20512;-78
2022/08/29 13:56:29;;;;;;;12.80;2.83;;;;;;;;;;5079397;28;20330;-78
2022/08/29 13:58:58;;;;;;;8.75;3.10;;;;;;;;;;5065128;28;20504;-78
2022/08/29 14:01:24;;;;;;;9.00;2.90;;;;;;;;;;5080565;28;20052;-78
2022/08/29 14:04:11;;;;;;;7.45;3.25;;;;;;;;;;5069880;28;20462;-78
2022/08/29 14:06:58;;;;;;;8.93;2.95;;;;;;;;;;5071526;28;20060;-77
2022/08/29 14:09:30;;;;;;;9.65;3.22;;;;;;;;;;5055688;28;20071;-78
2022/08/29 14:11:59;;;;;;;10.02;3.20;;;;;;;;;;5080752;28;20059;-78
2022/08/29 14:14:26;;;;;;;10.55;3.38;;;;;;;;;;5061447;28;20048;-77
2022/08/29 14:16:53;;;;;;;7.43;3.10;;;;;;;;;;5071528;28;20113;-77
2022/08/29 14:19:19;;;;;;;12.73;3.30;;;;;;;;;;5071500;28;20101;-77
2022/08/29 14:21:46;;;;;;;10.82;3.20;;;;;;;;;;5091578;28;20451;-77
2022/08/29 14:24:12;;;;;;;9.23;3.40;;;;;;;;;;5072252;28;20102;-77
2022/08/29 14:26:39;;;;;;;10.52;3.00;;;;;;;;;;5090814;28;20044;-76
2022/08/29 14:29:06;;;;;;;7.45;2.92;;;;;;;;;;5073323;28;20060;-78
2022/08/29 14:31:36;;;;;;;7.88;2.72;;;;;;;;;;5091379;28;20074;-76
2022/08/29 14:34:03;;;;;;;5.97;2.90;;;;;;;;;;5071912;28;20492;-78
2022/08/29 14:36:30;;;;;;;7.30;3.00;;;;;;;;;;5092773;28;20055;-77
2022/08/29 14:38:58;;;;;;;11.38;3.13;;;;;;;;;;5073119;28;20060;-76
2022/08/29 14:41:25;;;;;;;13.93;3.00;;;;;;;;;;5084225;28;20481;-78
2022/08/29 14:43:53;;;;;;;6.32;2.75;;;;;;;;;;5083353;28;20132;-77
2022/08/29 14:46:19;;;;;;;6.88;2.80;;;;;;;;;;5057762;28;20056;-78
2022/08/29 14:48:46;;;;;;;9.30;3.08;;;;;;;;;;5055648;28;20499;-78
2022/08/29 14:51:12;;;;;;;8.18;2.90;;;;;;;;;;5068607;28;20117;-77